sensor_id;sensor_type;location;lat;lon;timestamp;P1;durP1;ratioP1;P2;durP2;ratioP2
15230;SDS011;32569;51.762;8.564;2023-08-24T00:01:11;16.03;;;14.83;;
15230;SDS011;32569;51.762;8.564;2023-08-24T00:03:38;16.17;;;14.77;;
15230;SDS011;32569;51.762;8.564;2023-08-24T00:06:05;16.37;;;14.97;;
15230;SDS011;32569;51.762;8.564;2023-08-24T00:08:32;15.40;;;14.23;;
15230;SDS011;32569;51.762;8.564;2023-08-24T00:10:58;14.77;;;13.63;;
15230;SDS011;32569;51.762;8.564;2023-08-24T00:13:25;15.70;;;14.40;;
15230;SDS011;32569;51.762;8.564;2023-08-24T00:15:53;15.27;;;14.13;;
15230;SDS011;32569;51.762;8.564;2023-08-24T00:18:21;15.03;;;13.83;;
15230;SDS011;32569;51.762;8.564;2023-08-24T00:20:47;15.63;;;14.43;;
15230;SDS011;32569;51.762;8.564;2023-08-24T00:23:14;15.33;;;14.20;;
15230;SDS011;32569;51.762;8.564;2023-08-24T00:25:42;15.63;;;14.27;;
15230;SDS011;32569;51.762;8.564;2023-08-24T00:28:08;15.87;;;14.67;;
15230;SDS011;32569;51.762;8.564;2023-08-24T00:30:35;17.33;;;15.70;;
15230;SDS011;32569;51.762;8.564;2023-08-24T00:33:02;16.43;;;15.13;;
15230;SDS011;32569;51.762;8.564;2023-08-24T00:35:31;16.13;;;14.93;;
15230;SDS011;32569;51.762;8.564;2023-08-24T00:37:57;15.00;;;13.70;;
15230;SDS011;32569;51.762;8.564;2023-08-24T00:40:24;15.13;;;13.50;;
15230;SDS011;32569;51.762;8.564;2023-08-24T00:42:51;14.93;;;13.73;;
15230;SDS011;32569;51.762;8.564;2023-08-24T00:45:18;16.13;;;15.00;;
15230;SDS011;32569;51.762;8.564;2023-08-24T00:47:46;16.40;;;15.00;;
15230;SDS011;32569;51.762;8.564;2023-08-24T00:50:13;15.80;;;14.63;;
15230;SDS011;32569;51.762;8.564;2023-08-24T00:52:47;14.87;;;13.70;;
15230;SDS011;32569;51.762;8.564;2023-08-24T00:55:15;15.63;;;14.33;;
15230;SDS011;32569;51.762;8.564;2023-08-24T00:57:42;16.20;;;14.90;;
15230;SDS011;32569;51.762;8.564;2023-08-24T01:00:18;16.20;;;14.90;;
15230;SDS011;32569;51.762;8.564;2023-08-24T01:02:46;16.47;;;15.17;;
15230;SDS011;32569;51.762;8.564;2023-08-24T01:05:13;17.43;;;16.13;;
15230;SDS011;32569;51.762;8.564;2023-08-24T01:07:39;18.07;;;16.47;;
15230;SDS011;32569;51.762;8.564;2023-08-24T01:10:09;17.47;;;16.03;;
15230;SDS011;32569;51.762;8.564;2023-08-24T01:12:43;18.23;;;16.67;;
15230;SDS011;32569;51.762;8.564;2023-08-24T01:15:17;17.40;;;16.10;;
15230;SDS011;32569;51.762;8.564;2023-08-24T01:17:49;17.47;;;16.13;;
15230;SDS011;32569;51.762;8.564;2023-08-24T01:20:18;16.77;;;15.47;;
15230;SDS011;32569;51.762;8.564;2023-08-24T01:22:47;17.20;;;16.00;;
15230;SDS011;32569;51.762;8.564;2023-08-24T01:25:29;17.47;;;16.07;;
15230;SDS011;32569;51.762;8.564;2023-08-24T01:28:05;17.77;;;16.37;;
15230;SDS011;32569;51.762;8.564;2023-08-24T01:30:33;17.60;;;15.97;;
15230;SDS011;32569;51.762;8.564;2023-08-24T01:33:04;17.10;;;15.80;;
15230;SDS011;32569;51.762;8.564;2023-08-24T01:35:36;16.43;;;14.93;;
15230;SDS011;32569;51.762;8.564;2023-08-24T01:38:03;16.60;;;15.23;;
15230;SDS011;32569;51.762;8.564;2023-08-24T01:40:33;15.70;;;14.40;;
15230;SDS011;32569;51.762;8.564;2023-08-24T01:43:07;15.87;;;14.47;;
15230;SDS011;32569;51.762;8.564;2023-08-24T01:45:36;16.07;;;14.77;;
15230;SDS011;32569;51.762;8.564;2023-08-24T01:48:03;16.40;;;15.20;;
15230;SDS011;32569;51.762;8.564;2023-08-24T01:50:31;16.83;;;15.43;;
15230;SDS011;32569;51.762;8.564;2023-08-24T01:52:58;16.60;;;15.30;;
15230;SDS011;32569;51.762;8.564;2023-08-24T01:55:25;17.10;;;15.80;;
15230;SDS011;32569;51.762;8.564;2023-08-24T01:57:52;17.50;;;16.13;;
15230;SDS011;32569;51.762;8.564;2023-08-24T02:00:22;17.83;;;16.43;;
15230;SDS011;32569;51.762;8.564;2023-08-24T02:02:49;18.10;;;16.40;;
15230;SDS011;32569;51.762;8.564;2023-08-24T02:05:15;17.93;;;16.53;;
15230;SDS011;32569;51.762;8.564;2023-08-24T02:07:45;19.07;;;17.57;;
15230;SDS011;32569;51.762;8.564;2023-08-24T02:10:12;17.87;;;16.47;;
15230;SDS011;32569;51.762;8.564;2023-08-24T02:12:39;19.60;;;17.93;;
15230;SDS011;32569;51.762;8.564;2023-08-24T02:15:05;19.40;;;17.83;;
15230;SDS011;32569;51.762;8.564;2023-08-24T02:17:34;18.40;;;16.70;;
15230;SDS011;32569;51.762;8.564;2023-08-24T02:20:05;18.00;;;16.60;;
15230;SDS011;32569;51.762;8.564;2023-08-24T02:22:33;19.53;;;17.87;;
15230;SDS011;32569;51.762;8.564;2023-08-24T02:25:00;20.77;;;18.93;;
15230;SDS011;32569;51.762;8.564;2023-08-24T02:27:28;20.10;;;18.57;;
15230;SDS011;32569;51.762;8.564;2023-08-24T02:29:54;19.37;;;17.77;;
15230;SDS011;32569;51.762;8.564;2023-08-24T02:32:21;19.60;;;18.00;;
15230;SDS011;32569;51.762;8.564;2023-08-24T02:34:49;20.20;;;18.60;;
15230;SDS011;32569;51.762;8.564;2023-08-24T02:37:16;19.97;;;18.37;;
15230;SDS011;32569;51.762;8.564;2023-08-24T02:39:43;19.10;;;17.60;;
15230;SDS011;32569;51.762;8.564;2023-08-24T02:42:09;19.47;;;17.97;;
15230;SDS011;32569;51.762;8.564;2023-08-24T02:44:36;19.33;;;17.63;;
15230;SDS011;32569;51.762;8.564;2023-08-24T02:47:03;19.13;;;17.47;;
15230;SDS011;32569;51.762;8.564;2023-08-24T02:49:30;17.93;;;16.50;;
15230;SDS011;32569;51.762;8.564;2023-08-24T02:51:58;18.07;;;16.73;;
15230;SDS011;32569;51.762;8.564;2023-08-24T02:54:25;18.90;;;17.37;;
15230;SDS011;32569;51.762;8.564;2023-08-24T02:56:53;17.77;;;16.47;;
15230;SDS011;32569;51.762;8.564;2023-08-24T02:59:19;18.63;;;17.10;;
15230;SDS011;32569;51.762;8.564;2023-08-24T03:01:46;18.33;;;16.90;;
15230;SDS011;32569;51.762;8.564;2023-08-24T03:04:13;17.90;;;16.47;;
15230;SDS011;32569;51.762;8.564;2023-08-24T03:06:39;18.60;;;17.20;;
15230;SDS011;32569;51.762;8.564;2023-08-24T03:09:07;17.77;;;16.47;;
15230;SDS011;32569;51.762;8.564;2023-08-24T03:11:34;18.20;;;16.77;;
15230;SDS011;32569;51.762;8.564;2023-08-24T03:14:01;18.00;;;16.70;;
15230;SDS011;32569;51.762;8.564;2023-08-24T03:16:28;18.07;;;16.67;;
15230;SDS011;32569;51.762;8.564;2023-08-24T03:18:57;17.90;;;16.60;;
15230;SDS011;32569;51.762;8.564;2023-08-24T03:21:23;17.83;;;16.47;;
15230;SDS011;32569;51.762;8.564;2023-08-24T03:23:53;18.10;;;16.77;;
15230;SDS011;32569;51.762;8.564;2023-08-24T03:26:21;18.90;;;17.43;;
15230;SDS011;32569;51.762;8.564;2023-08-24T03:28:48;18.53;;;17.03;;
15230;SDS011;32569;51.762;8.564;2023-08-24T03:31:16;18.10;;;16.70;;
15230;SDS011;32569;51.762;8.564;2023-08-24T03:33:42;18.73;;;17.03;;
15230;SDS011;32569;51.762;8.564;2023-08-24T03:36:09;18.70;;;17.20;;
15230;SDS011;32569;51.762;8.564;2023-08-24T03:38:36;18.47;;;17.07;;
15230;SDS011;32569;51.762;8.564;2023-08-24T03:41:03;18.90;;;17.40;;
15230;SDS011;32569;51.762;8.564;2023-08-24T03:43:32;18.90;;;17.10;;
15230;SDS011;32569;51.762;8.564;2023-08-24T03:46:00;17.60;;;16.17;;
15230;SDS011;32569;51.762;8.564;2023-08-24T03:48:29;17.67;;;16.17;;
15230;SDS011;32569;51.762;8.564;2023-08-24T03:50:55;17.57;;;16.17;;
15230;SDS011;32569;51.762;8.564;2023-08-24T03:53:22;18.53;;;17.10;;
15230;SDS011;32569;51.762;8.564;2023-08-24T03:55:50;18.17;;;16.73;;
15230;SDS011;32569;51.762;8.564;2023-08-24T03:58:17;17.80;;;16.30;;
15230;SDS011;32569;51.762;8.564;2023-08-24T04:00:48;17.67;;;16.37;;
15230;SDS011;32569;51.762;8.564;2023-08-24T04:03:15;17.57;;;16.17;;
15230;SDS011;32569;51.762;8.564;2023-08-24T04:05:42;16.60;;;15.30;;
15230;SDS011;32569;51.762;8.564;2023-08-24T04:08:08;18.73;;;17.17;;
15230;SDS011;32569;51.762;8.564;2023-08-24T04:10:35;18.00;;;16.47;;
15230;SDS011;32569;51.762;8.564;2023-08-24T04:13:03;18.63;;;17.03;;
15230;SDS011;32569;51.762;8.564;2023-08-24T04:15:30;17.27;;;15.87;;
15230;SDS011;32569;51.762;8.564;2023-08-24T04:17:57;18.37;;;16.97;;
15230;SDS011;32569;51.762;8.564;2023-08-24T04:20:24;18.27;;;16.73;;
15230;SDS011;32569;51.762;8.564;2023-08-24T04:22:50;17.60;;;16.30;;
15230;SDS011;32569;51.762;8.564;2023-08-24T04:25:17;18.23;;;16.93;;
15230;SDS011;32569;51.762;8.564;2023-08-24T04:27:44;19.57;;;18.07;;
15230;SDS011;32569;51.762;8.564;2023-08-24T04:30:11;19.73;;;18.17;;
15230;SDS011;32569;51.762;8.564;2023-08-24T04:32:38;19.87;;;18.30;;
15230;SDS011;32569;51.762;8.564;2023-08-24T04:35:07;20.43;;;18.53;;
15230;SDS011;32569;51.762;8.564;2023-08-24T04:37:35;19.13;;;17.43;;
15230;SDS011;32569;51.762;8.564;2023-08-24T04:40:02;17.73;;;16.33;;
15230;SDS011;32569;51.762;8.564;2023-08-24T04:42:29;18.17;;;16.67;;
15230;SDS011;32569;51.762;8.564;2023-08-24T04:44:56;17.70;;;16.37;;
15230;SDS011;32569;51.762;8.564;2023-08-24T04:47:23;18.53;;;17.03;;
15230;SDS011;32569;51.762;8.564;2023-08-24T04:49:49;18.77;;;17.17;;
15230;SDS011;32569;51.762;8.564;2023-08-24T04:52:17;19.00;;;17.60;;
15230;SDS011;32569;51.762;8.564;2023-08-24T04:54:44;19.10;;;17.50;;
15230;SDS011;32569;51.762;8.564;2023-08-24T04:57:11;19.53;;;18.00;;
15230;SDS011;32569;51.762;8.564;2023-08-24T04:59:38;18.57;;;17.00;;
15230;SDS011;32569;51.762;8.564;2023-08-24T05:02:05;18.53;;;17.03;;
15230;SDS011;32569;51.762;8.564;2023-08-24T05:04:31;18.40;;;17.00;;
15230;SDS011;32569;51.762;8.564;2023-08-24T05:06:58;18.33;;;16.67;;
15230;SDS011;32569;51.762;8.564;2023-08-24T05:09:26;18.37;;;16.97;;
15230;SDS011;32569;51.762;8.564;2023-08-24T05:11:53;18.33;;;16.90;;
15230;SDS011;32569;51.762;8.564;2023-08-24T05:14:20;18.83;;;17.27;;
15230;SDS011;32569;51.762;8.564;2023-08-24T05:16:46;17.60;;;16.20;;
15230;SDS011;32569;51.762;8.564;2023-08-24T05:19:13;18.70;;;17.27;;
15230;SDS011;32569;51.762;8.564;2023-08-24T05:21:40;17.50;;;16.17;;
15230;SDS011;32569;51.762;8.564;2023-08-24T05:24:10;19.50;;;17.77;;
15230;SDS011;32569;51.762;8.564;2023-08-24T05:26:38;17.67;;;16.20;;
15230;SDS011;32569;51.762;8.564;2023-08-24T05:29:04;17.63;;;16.13;;
15230;SDS011;32569;51.762;8.564;2023-08-24T05:31:31;18.30;;;16.87;;
15230;SDS011;32569;51.762;8.564;2023-08-24T05:33:58;17.40;;;16.00;;
15230;SDS011;32569;51.762;8.564;2023-08-24T05:36:25;18.07;;;16.63;;
15230;SDS011;32569;51.762;8.564;2023-08-24T05:38:52;17.73;;;16.23;;
15230;SDS011;32569;51.762;8.564;2023-08-24T05:41:21;17.90;;;16.27;;
15230;SDS011;32569;51.762;8.564;2023-08-24T05:43:49;18.60;;;16.87;;
15230;SDS011;32569;51.762;8.564;2023-08-24T05:46:17;18.67;;;16.97;;
15230;SDS011;32569;51.762;8.564;2023-08-24T05:48:44;17.87;;;16.17;;
15230;SDS011;32569;51.762;8.564;2023-08-24T05:51:11;17.57;;;16.10;;
15230;SDS011;32569;51.762;8.564;2023-08-24T05:53:37;16.97;;;15.47;;
15230;SDS011;32569;51.762;8.564;2023-08-24T05:56:05;18.40;;;16.73;;
15230;SDS011;32569;51.762;8.564;2023-08-24T05:58:32;17.33;;;15.90;;
15230;SDS011;32569;51.762;8.564;2023-08-24T06:01:00;17.93;;;16.50;;
15230;SDS011;32569;51.762;8.564;2023-08-24T06:03:27;18.13;;;16.63;;
15230;SDS011;32569;51.762;8.564;2023-08-24T06:05:54;19.80;;;18.27;;
15230;SDS011;32569;51.762;8.564;2023-08-24T06:08:26;18.83;;;17.33;;
15230;SDS011;32569;51.762;8.564;2023-08-24T06:10:53;19.77;;;17.97;;
15230;SDS011;32569;51.762;8.564;2023-08-24T06:13:19;19.10;;;17.47;;
15230;SDS011;32569;51.762;8.564;2023-08-24T06:15:46;19.57;;;18.03;;
15230;SDS011;32569;51.762;8.564;2023-08-24T06:18:14;19.40;;;17.80;;
15230;SDS011;32569;51.762;8.564;2023-08-24T06:20:41;19.30;;;17.77;;
15230;SDS011;32569;51.762;8.564;2023-08-24T06:23:07;18.23;;;16.63;;
15230;SDS011;32569;51.762;8.564;2023-08-24T06:25:35;17.70;;;16.30;;
15230;SDS011;32569;51.762;8.564;2023-08-24T06:28:01;17.33;;;15.83;;
15230;SDS011;32569;51.762;8.564;2023-08-24T06:30:29;17.13;;;15.83;;
15230;SDS011;32569;51.762;8.564;2023-08-24T06:33:02;17.13;;;15.57;;
15230;SDS011;32569;51.762;8.564;2023-08-24T06:35:30;16.57;;;15.20;;
15230;SDS011;32569;51.762;8.564;2023-08-24T06:37:57;17.00;;;15.30;;
15230;SDS011;32569;51.762;8.564;2023-08-24T06:40:24;15.20;;;13.87;;
15230;SDS011;32569;51.762;8.564;2023-08-24T06:42:51;15.53;;;14.10;;
15230;SDS011;32569;51.762;8.564;2023-08-24T06:45:18;15.60;;;14.37;;
15230;SDS011;32569;51.762;8.564;2023-08-24T06:47:44;15.10;;;13.90;;
15230;SDS011;32569;51.762;8.564;2023-08-24T06:50:11;15.17;;;13.87;;
15230;SDS011;32569;51.762;8.564;2023-08-24T06:52:39;15.37;;;13.80;;
15230;SDS011;32569;51.762;8.564;2023-08-24T06:55:07;14.00;;;12.93;;
15230;SDS011;32569;51.762;8.564;2023-08-24T06:57:34;13.43;;;12.43;;
15230;SDS011;32569;51.762;8.564;2023-08-24T07:00:01;13.30;;;12.30;;
15230;SDS011;32569;51.762;8.564;2023-08-24T07:02:31;13.30;;;12.20;;
15230;SDS011;32569;51.762;8.564;2023-08-24T07:04:58;14.20;;;12.83;;
15230;SDS011;32569;51.762;8.564;2023-08-24T07:07:26;13.73;;;12.63;;
15230;SDS011;32569;51.762;8.564;2023-08-24T07:09:54;13.37;;;12.37;;
15230;SDS011;32569;51.762;8.564;2023-08-24T07:12:20;15.13;;;13.83;;
15230;SDS011;32569;51.762;8.564;2023-08-24T07:14:47;13.57;;;12.37;;
15230;SDS011;32569;51.762;8.564;2023-08-24T07:17:14;14.27;;;12.87;;
15230;SDS011;32569;51.762;8.564;2023-08-24T07:19:40;14.33;;;12.83;;
15230;SDS011;32569;51.762;8.564;2023-08-24T07:22:07;14.13;;;13.03;;
15230;SDS011;32569;51.762;8.564;2023-08-24T07:24:34;14.07;;;12.87;;
15230;SDS011;32569;51.762;8.564;2023-08-24T07:27:02;14.10;;;12.90;;
15230;SDS011;32569;51.762;8.564;2023-08-24T07:29:29;14.90;;;13.60;;
15230;SDS011;32569;51.762;8.564;2023-08-24T07:31:56;14.37;;;13.07;;
15230;SDS011;32569;51.762;8.564;2023-08-24T07:34:23;15.00;;;13.70;;
15230;SDS011;32569;51.762;8.564;2023-08-24T07:36:50;15.77;;;14.47;;
15230;SDS011;32569;51.762;8.564;2023-08-24T07:39:17;15.93;;;14.50;;
15230;SDS011;32569;51.762;8.564;2023-08-24T07:41:44;17.87;;;16.17;;
15230;SDS011;32569;51.762;8.564;2023-08-24T07:44:13;16.40;;;14.90;;
15230;SDS011;32569;51.762;8.564;2023-08-24T07:46:40;17.10;;;15.70;;
15230;SDS011;32569;51.762;8.564;2023-08-24T07:49:06;16.93;;;15.33;;
15230;SDS011;32569;51.762;8.564;2023-08-24T07:51:33;14.80;;;13.60;;
15230;SDS011;32569;51.762;8.564;2023-08-24T07:54:00;14.40;;;13.30;;
15230;SDS011;32569;51.762;8.564;2023-08-24T07:56:27;13.90;;;12.70;;
15230;SDS011;32569;51.762;8.564;2023-08-24T07:58:53;13.63;;;12.40;;
15230;SDS011;32569;51.762;8.564;2023-08-24T08:01:21;13.60;;;12.30;;
15230;SDS011;32569;51.762;8.564;2023-08-24T08:03:48;12.47;;;11.23;;
15230;SDS011;32569;51.762;8.564;2023-08-24T08:06:15;11.97;;;10.90;;
15230;SDS011;32569;51.762;8.564;2023-08-24T08:08:42;12.70;;;11.60;;
15230;SDS011;32569;51.762;8.564;2023-08-24T08:11:09;11.90;;;10.77;;
15230;SDS011;32569;51.762;8.564;2023-08-24T08:13:36;10.60;;;9.60;;
15230;SDS011;32569;51.762;8.564;2023-08-24T08:16:03;10.40;;;9.50;;
15230;SDS011;32569;51.762;8.564;2023-08-24T08:18:31;10.03;;;9.03;;
15230;SDS011;32569;51.762;8.564;2023-08-24T08:20:59;12.07;;;9.87;;
15230;SDS011;32569;51.762;8.564;2023-08-24T08:23:27;10.27;;;9.17;;
15230;SDS011;32569;51.762;8.564;2023-08-24T08:25:53;10.20;;;9.20;;
15230;SDS011;32569;51.762;8.564;2023-08-24T08:28:20;9.53;;;8.73;;
15230;SDS011;32569;51.762;8.564;2023-08-24T08:30:47;9.20;;;7.90;;
15230;SDS011;32569;51.762;8.564;2023-08-24T08:33:14;10.50;;;9.43;;
15230;SDS011;32569;51.762;8.564;2023-08-24T08:35:43;8.90;;;8.07;;
15230;SDS011;32569;51.762;8.564;2023-08-24T08:38:09;8.37;;;7.67;;
15230;SDS011;32569;51.762;8.564;2023-08-24T08:40:36;8.30;;;7.50;;
15230;SDS011;32569;51.762;8.564;2023-08-24T08:43:03;8.97;;;8.03;;
15230;SDS011;32569;51.762;8.564;2023-08-24T08:45:31;8.70;;;7.80;;
15230;SDS011;32569;51.762;8.564;2023-08-24T08:47:58;7.10;;;6.50;;
15230;SDS011;32569;51.762;8.564;2023-08-24T08:50:26;6.97;;;6.47;;
15230;SDS011;32569;51.762;8.564;2023-08-24T08:52:55;6.77;;;6.10;;
15230;SDS011;32569;51.762;8.564;2023-08-24T08:55:23;6.13;;;5.53;;
15230;SDS011;32569;51.762;8.564;2023-08-24T08:57:51;6.80;;;6.03;;
15230;SDS011;32569;51.762;8.564;2023-08-24T09:00:23;6.20;;;5.60;;
15230;SDS011;32569;51.762;8.564;2023-08-24T09:02:51;8.03;;;6.10;;
15230;SDS011;32569;51.762;8.564;2023-08-24T09:05:19;8.37;;;5.57;;
15230;SDS011;32569;51.762;8.564;2023-08-24T09:07:46;6.23;;;5.73;;
15230;SDS011;32569;51.762;8.564;2023-08-24T09:10:15;6.17;;;5.60;;
15230;SDS011;32569;51.762;8.564;2023-08-24T09:12:42;6.17;;;5.53;;
15230;SDS011;32569;51.762;8.564;2023-08-24T09:15:09;8.33;;;5.70;;
15230;SDS011;32569;51.762;8.564;2023-08-24T09:17:36;5.10;;;4.60;;
15230;SDS011;32569;51.762;8.564;2023-08-24T09:20:09;6.03;;;4.60;;
15230;SDS011;32569;51.762;8.564;2023-08-24T09:22:36;4.53;;;4.13;;
15230;SDS011;32569;51.762;8.564;2023-08-24T09:25:06;5.57;;;5.07;;
15230;SDS011;32569;51.762;8.564;2023-08-24T09:27:36;5.80;;;4.10;;
15230;SDS011;32569;51.762;8.564;2023-08-24T09:30:03;4.63;;;4.10;;
15230;SDS011;32569;51.762;8.564;2023-08-24T09:32:32;5.43;;;4.93;;
15230;SDS011;32569;51.762;8.564;2023-08-24T09:35:01;4.97;;;4.47;;
15230;SDS011;32569;51.762;8.564;2023-08-24T09:37:31;4.97;;;4.43;;
15230;SDS011;32569;51.762;8.564;2023-08-24T09:40:00;4.90;;;3.87;;
15230;SDS011;32569;51.762;8.564;2023-08-24T09:42:40;7.70;;;5.03;;
15230;SDS011;32569;51.762;8.564;2023-08-24T09:45:08;5.93;;;4.83;;
15230;SDS011;32569;51.762;8.564;2023-08-24T09:47:37;4.83;;;4.43;;
15230;SDS011;32569;51.762;8.564;2023-08-24T09:50:05;5.83;;;4.40;;
15230;SDS011;32569;51.762;8.564;2023-08-24T09:52:33;6.07;;;4.53;;
15230;SDS011;32569;51.762;8.564;2023-08-24T09:55:02;8.43;;;4.43;;
15230;SDS011;32569;51.762;8.564;2023-08-24T09:57:32;4.77;;;4.30;;
15230;SDS011;32569;51.762;8.564;2023-08-24T10:00:04;6.43;;;4.37;;
15230;SDS011;32569;51.762;8.564;2023-08-24T10:02:35;4.70;;;4.17;;
15230;SDS011;32569;51.762;8.564;2023-08-24T10:05:03;6.27;;;4.40;;
15230;SDS011;32569;51.762;8.564;2023-08-24T10:07:32;5.07;;;4.10;;
15230;SDS011;32569;51.762;8.564;2023-08-24T10:10:01;4.57;;;4.17;;
15230;SDS011;32569;51.762;8.564;2023-08-24T10:12:30;5.00;;;4.30;;
15230;SDS011;32569;51.762;8.564;2023-08-24T10:15:02;4.70;;;4.30;;
15230;SDS011;32569;51.762;8.564;2023-08-24T10:17:32;3.70;;;3.40;;
15230;SDS011;32569;51.762;8.564;2023-08-24T10:20:00;5.17;;;3.83;;
15230;SDS011;32569;51.762;8.564;2023-08-24T10:22:30;4.10;;;3.53;;
15230;SDS011;32569;51.762;8.564;2023-08-24T10:24:57;6.43;;;3.60;;
15230;SDS011;32569;51.762;8.564;2023-08-24T10:27:24;3.87;;;3.53;;
15230;SDS011;32569;51.762;8.564;2023-08-24T10:29:53;4.53;;;3.40;;
15230;SDS011;32569;51.762;8.564;2023-08-24T10:32:21;3.20;;;2.90;;
15230;SDS011;32569;51.762;8.564;2023-08-24T10:34:49;3.53;;;3.23;;
15230;SDS011;32569;51.762;8.564;2023-08-24T10:37:16;3.60;;;2.83;;
15230;SDS011;32569;51.762;8.564;2023-08-24T10:39:46;3.30;;;3.00;;
15230;SDS011;32569;51.762;8.564;2023-08-24T10:42:13;3.70;;;3.40;;
15230;SDS011;32569;51.762;8.564;2023-08-24T10:44:43;4.03;;;3.03;;
15230;SDS011;32569;51.762;8.564;2023-08-24T10:47:11;4.40;;;3.43;;
15230;SDS011;32569;51.762;8.564;2023-08-24T10:49:41;6.90;;;3.60;;
15230;SDS011;32569;51.762;8.564;2023-08-24T10:52:17;4.77;;;3.47;;
15230;SDS011;32569;51.762;8.564;2023-08-24T10:54:48;5.83;;;3.37;;
15230;SDS011;32569;51.762;8.564;2023-08-24T10:57:19;5.10;;;3.53;;
15230;SDS011;32569;51.762;8.564;2023-08-24T11:00:00;3.63;;;3.33;;
15230;SDS011;32569;51.762;8.564;2023-08-24T11:02:31;5.40;;;3.93;;
15230;SDS011;32569;51.762;8.564;2023-08-24T11:05:15;4.07;;;3.63;;
15230;SDS011;32569;51.762;8.564;2023-08-24T11:07:50;4.73;;;4.20;;
15230;SDS011;32569;51.762;8.564;2023-08-24T11:10:18;4.33;;;3.80;;
15230;SDS011;32569;51.762;8.564;2023-08-24T11:13:04;4.87;;;3.57;;
15230;SDS011;32569;51.762;8.564;2023-08-24T11:15:37;4.80;;;3.83;;
15230;SDS011;32569;51.762;8.564;2023-08-24T11:18:14;4.60;;;3.23;;
15230;SDS011;32569;51.762;8.564;2023-08-24T11:20:48;5.43;;;3.60;;
15230;SDS011;32569;51.762;8.564;2023-08-24T11:23:16;5.00;;;3.57;;
15230;SDS011;32569;51.762;8.564;2023-08-24T11:25:44;4.70;;;3.63;;
15230;SDS011;32569;51.762;8.564;2023-08-24T11:28:13;3.63;;;3.20;;
15230;SDS011;32569;51.762;8.564;2023-08-24T11:30:43;6.00;;;4.40;;
15230;SDS011;32569;51.762;8.564;2023-08-24T11:33:10;5.53;;;3.30;;
15230;SDS011;32569;51.762;8.564;2023-08-24T11:35:38;7.87;;;4.23;;
15230;SDS011;32569;51.762;8.564;2023-08-24T11:38:07;3.80;;;3.37;;
15230;SDS011;32569;51.762;8.564;2023-08-24T11:40:34;5.60;;;3.40;;
15230;SDS011;32569;51.762;8.564;2023-08-24T11:43:01;4.90;;;3.57;;
15230;SDS011;32569;51.762;8.564;2023-08-24T11:45:29;5.05;;;3.30;;
15230;SDS011;32569;51.762;8.564;2023-08-24T11:47:58;5.83;;;3.43;;
15230;SDS011;32569;51.762;8.564;2023-08-24T11:50:25;7.07;;;4.47;;
15230;SDS011;32569;51.762;8.564;2023-08-24T11:52:53;3.47;;;2.90;;
15230;SDS011;32569;51.762;8.564;2023-08-24T11:55:22;4.55;;;3.53;;
15230;SDS011;32569;51.762;8.564;2023-08-24T11:57:48;3.50;;;3.10;;
15230;SDS011;32569;51.762;8.564;2023-08-24T12:00:15;3.97;;;3.42;;
15230;SDS011;32569;51.762;8.564;2023-08-24T12:02:44;3.65;;;3.10;;
15230;SDS011;32569;51.762;8.564;2023-08-24T12:07:56;3.83;;;3.22;;
15230;SDS011;32569;51.762;8.564;2023-08-24T12:10:24;3.75;;;3.22;;
15230;SDS011;32569;51.762;8.564;2023-08-24T12:13:00;4.60;;;3.35;;
15230;SDS011;32569;51.762;8.564;2023-08-24T12:15:28;3.53;;;3.20;;
15230;SDS011;32569;51.762;8.564;2023-08-24T12:17:54;4.45;;;3.20;;
15230;SDS011;32569;51.762;8.564;2023-08-24T12:20:21;4.45;;;3.40;;
15230;SDS011;32569;51.762;8.564;2023-08-24T12:22:52;4.03;;;3.22;;
15230;SDS011;32569;51.762;8.564;2023-08-24T12:25:22;3.38;;;2.78;;
15230;SDS011;32569;51.762;8.564;2023-08-24T12:27:51;11.48;;;3.63;;
15230;SDS011;32569;51.762;8.564;2023-08-24T12:30:19;4.57;;;3.13;;
15230;SDS011;32569;51.762;8.564;2023-08-24T12:32:46;6.28;;;3.20;;
15230;SDS011;32569;51.762;8.564;2023-08-24T12:35:15;4.72;;;3.53;;
15230;SDS011;32569;51.762;8.564;2023-08-24T12:37:42;4.70;;;3.45;;
15230;SDS011;32569;51.762;8.564;2023-08-24T12:40:09;4.38;;;2.97;;
15230;SDS011;32569;51.762;8.564;2023-08-24T12:42:38;4.30;;;3.35;;
15230;SDS011;32569;51.762;8.564;2023-08-24T12:45:05;4.05;;;3.53;;
15230;SDS011;32569;51.762;8.564;2023-08-24T12:47:33;4.78;;;3.40;;
15230;SDS011;32569;51.762;8.564;2023-08-24T12:50:03;3.53;;;3.22;;
15230;SDS011;32569;51.762;8.564;2023-08-24T12:52:31;3.63;;;3.20;;
15230;SDS011;32569;51.762;8.564;2023-08-24T12:54:57;3.85;;;3.47;;
15230;SDS011;32569;51.762;8.564;2023-08-24T12:57:24;4.72;;;3.60;;
15230;SDS011;32569;51.762;8.564;2023-08-24T12:59:51;4.63;;;3.55;;
15230;SDS011;32569;51.762;8.564;2023-08-24T13:02:19;5.55;;;3.60;;
15230;SDS011;32569;51.762;8.564;2023-08-24T13:04:46;3.80;;;3.28;;
15230;SDS011;32569;51.762;8.564;2023-08-24T13:07:13;6.97;;;3.80;;
15230;SDS011;32569;51.762;8.564;2023-08-24T13:09:40;4.63;;;3.25;;
15230;SDS011;32569;51.762;8.564;2023-08-24T13:12:06;6.10;;;3.67;;
15230;SDS011;32569;51.762;8.564;2023-08-24T13:14:33;5.05;;;3.70;;
15230;SDS011;32569;51.762;8.564;2023-08-24T13:17:01;4.68;;;3.28;;
15230;SDS011;32569;51.762;8.564;2023-08-24T13:19:28;4.38;;;4.03;;
15230;SDS011;32569;51.762;8.564;2023-08-24T13:21:55;4.80;;;3.42;;
15230;SDS011;32569;51.762;8.564;2023-08-24T13:24:22;3.80;;;3.50;;
15230;SDS011;32569;51.762;8.564;2023-08-24T13:26:49;5.13;;;3.83;;
15230;SDS011;32569;51.762;8.564;2023-08-24T13:29:15;4.65;;;4.25;;
15230;SDS011;32569;51.762;8.564;2023-08-24T13:31:42;4.50;;;4.10;;
15230;SDS011;32569;51.762;8.564;2023-08-24T13:34:10;5.25;;;4.03;;
15230;SDS011;32569;51.762;8.564;2023-08-24T13:36:36;4.22;;;3.55;;
15230;SDS011;32569;51.762;8.564;2023-08-24T13:39:03;5.20;;;4.38;;
15230;SDS011;32569;51.762;8.564;2023-08-24T13:41:30;5.82;;;4.00;;
15230;SDS011;32569;51.762;8.564;2023-08-24T13:43:57;6.22;;;4.22;;
15230;SDS011;32569;51.762;8.564;2023-08-24T13:46:23;4.30;;;3.90;;
15230;SDS011;32569;51.762;8.564;2023-08-24T13:48:50;6.05;;;3.72;;
15230;SDS011;32569;51.762;8.564;2023-08-24T13:51:18;5.28;;;3.97;;
15230;SDS011;32569;51.762;8.564;2023-08-24T13:53:45;5.82;;;4.38;;
15230;SDS011;32569;51.762;8.564;2023-08-24T13:56:13;4.03;;;3.70;;
15230;SDS011;32569;51.762;8.564;2023-08-24T13:58:40;6.15;;;4.05;;
15230;SDS011;32569;51.762;8.564;2023-08-24T14:01:06;4.93;;;3.78;;
15230;SDS011;32569;51.762;8.564;2023-08-24T14:03:35;4.32;;;3.45;;
15230;SDS011;32569;51.762;8.564;2023-08-24T14:06:02;3.97;;;3.65;;
15230;SDS011;32569;51.762;8.564;2023-08-24T14:08:30;6.15;;;4.10;;
15230;SDS011;32569;51.762;8.564;2023-08-24T14:10:57;3.70;;;3.40;;
15230;SDS011;32569;51.762;8.564;2023-08-24T14:13:24;5.20;;;3.75;;
15230;SDS011;32569;51.762;8.564;2023-08-24T14:15:51;4.53;;;3.75;;
15230;SDS011;32569;51.762;8.564;2023-08-24T14:18:18;4.50;;;3.35;;
15230;SDS011;32569;51.762;8.564;2023-08-24T14:20:45;4.80;;;2.88;;
15230;SDS011;32569;51.762;8.564;2023-08-24T14:23:11;3.95;;;3.10;;
15230;SDS011;32569;51.762;8.564;2023-08-24T14:25:39;4.53;;;3.00;;
15230;SDS011;32569;51.762;8.564;2023-08-24T14:28:06;7.57;;;3.45;;
15230;SDS011;32569;51.762;8.564;2023-08-24T14:30:33;4.43;;;3.50;;
15230;SDS011;32569;51.762;8.564;2023-08-24T14:32:59;6.47;;;3.10;;
15230;SDS011;32569;51.762;8.564;2023-08-24T14:35:26;3.15;;;2.95;;
15230;SDS011;32569;51.762;8.564;2023-08-24T14:37:53;4.28;;;3.22;;
15230;SDS011;32569;51.762;8.564;2023-08-24T14:40:19;5.15;;;3.08;;